Hometown, Illinois
Current Conditions -  °F | °C
As of 12:53 AM on Thursday 23 Oct 2014 (Local Time) from KMDW Reporting Station
Clear Clear  
Wind Chill: 42°   Ceiling: Unl
Heat Index: 45°   Visibility: 10mi
Dew Point: 39°   Wind: 6mph
Humidity: 80%   Direction: 150°SSE
Pressure: 30.26"   Gusts: NA
Location:  41.73°N, 87.73°W
Report Text: KMDW 230553Z 15005KT 10SM CLR 07/04 A3026 RMK AO2 SLP249 T00720039 10100 20067 401330061 58006
Loading
Personal Weather Stations






























Interactive Weather Map
Tropical Storm Tracking
New forecast layout! Learn more

10-Day Weather Forecast

Advertisements
Track Severe Weather on mobile